createdAt,value
2022-11-01T02:24:45.260Z,99146.80
2022-11-01T02:27:16.288Z,99140.40
2022-11-01T02:30:03.816Z,99137.80
2022-11-01T02:33:16.291Z,99128.40
2022-11-01T02:35:57.922Z,99135.80
2022-11-01T02:38:51.006Z,99141.20
2022-11-01T02:41:33.068Z,99146.40
2022-11-01T02:44:07.678Z,99144.00
2022-11-01T02:46:58.958Z,99134.80
2022-11-01T02:49:42.920Z,99127.40
2022-11-01T02:52:21.896Z,99124.40
2022-11-01T02:55:01.377Z,99124.20
2022-11-01T02:57:39.676Z,99127.20
2022-11-01T03:00:29.326Z,99124.20
2022-11-01T03:03:17.576Z,99121.80
2022-11-01T03:06:05.463Z,99122.40
2022-11-01T03:08:59.194Z,99122.00
2022-11-01T03:11:49.208Z,99123.20
2022-11-01T03:14:32.145Z,99114.80
2022-11-01T03:17:13.784Z,99112.80
2022-11-01T03:20:17.391Z,99111.20
2022-11-01T03:22:53.608Z,99106.20
2022-11-01T03:25:39.622Z,99114.80
2022-11-01T03:28:15.219Z,99115.80
2022-11-01T03:30:56.866Z,99117.80
2022-11-01T03:33:27.394Z,99114.60
2022-11-01T03:36:01.607Z,99106.20
2022-11-01T03:38:34.660Z,99106.80
2022-11-01T03:41:06.799Z,99107.80
2022-11-01T03:43:36.679Z,99107.60
2022-11-01T03:46:03.752Z,99108.00
2022-11-01T03:48:30.134Z,99108.60
2022-11-01T03:50:56.566Z,99104.80
2022-11-01T03:53:24.082Z,99103.00
2022-11-01T03:55:50.822Z,99098.80
2022-11-01T03:58:17.327Z,99100.60
2022-11-01T04:00:46.791Z,99097.00
2022-11-01T04:03:14.156Z,99096.20
2022-11-01T04:05:42.401Z,99093.60
2022-11-01T04:08:11.800Z,99093.80
2022-11-01T04:10:38.652Z,99091.80
2022-11-01T04:13:05.750Z,99093.40
2022-11-01T04:15:50.748Z,99091.00
2022-11-01T04:18:37.378Z,99091.80
2022-11-01T04:21:09.281Z,99090.80
2022-11-01T04:23:35.982Z,99091.20
2022-11-01T04:26:03.773Z,99088.00
2022-11-01T04:28:30.237Z,99087.20
2022-11-01T04:30:56.972Z,99088.40
2022-11-01T04:33:23.949Z,99080.60
2022-11-01T04:35:50.388Z,99078.20
2022-11-01T04:38:17.107Z,99074.00
2022-11-01T04:40:44.169Z,99068.60
2022-11-01T04:43:12.283Z,99070.00
2022-11-01T04:45:39.713Z,99065.80
2022-11-01T04:48:16.907Z,99062.40
2022-11-01T04:50:45.740Z,99055.40
2022-11-01T04:53:12.288Z,99046.40
2022-11-01T04:55:39.176Z,99040.00
2022-11-01T04:58:06.756Z,99037.80
2022-11-01T05:00:34.315Z,99031.00
2022-11-01T05:03:03.705Z,99031.40
2022-11-01T05:05:31.478Z,99026.60
2022-11-01T05:08:05.110Z,99021.20
2022-11-01T05:10:33.503Z,99018.20
2022-11-01T05:13:01.429Z,99017.00
2022-11-01T05:15:28.097Z,99010.80
2022-11-01T05:17:55.185Z,99016.40
2022-11-01T05:20:21.560Z,99009.40
2022-11-01T05:22:48.999Z,99014.40
2022-11-01T05:25:16.678Z,99014.20
2022-11-01T05:27:43.144Z,99014.80
2022-11-01T05:30:10.624Z,99012.00
2022-11-01T05:32:37.971Z,99012.00
2022-11-01T05:35:04.874Z,99010.40
2022-11-01T05:37:31.314Z,99011.00
2022-11-01T05:39:57.801Z,99010.80
2022-11-01T05:42:24.179Z,99014.60
2022-11-01T05:44:50.724Z,99019.20
2022-11-01T05:47:17.656Z,99018.80
2022-11-01T05:49:44.287Z,99014.80
2022-11-01T05:52:10.759Z,99010.80
2022-11-01T05:54:37.173Z,99012.60
2022-11-01T05:57:06.127Z,99010.00
2022-11-01T05:59:32.650Z,99009.40
2022-11-01T06:01:59.202Z,99008.20
2022-11-01T06:04:25.696Z,99011.60
2022-11-01T06:06:52.111Z,99014.80
2022-11-01T06:09:18.533Z,99014.80
2022-11-01T06:11:44.974Z,99020.20
2022-11-01T06:14:12.074Z,99022.40
2022-11-01T06:16:38.728Z,99029.00
2022-11-01T06:19:05.236Z,99033.00
2022-11-01T06:21:31.974Z,99036.60
2022-11-01T06:23:58.386Z,99037.00
2022-11-01T06:26:24.796Z,99039.40
2022-11-01T06:28:51.274Z,99039.20
2022-11-01T06:31:17.657Z,99034.20
2022-11-01T06:33:44.084Z,99032.80
2022-11-01T06:36:10.825Z,99033.80
2022-11-01T06:38:37.272Z,99039.60
2022-11-01T06:41:03.824Z,99040.60
2022-11-01T06:43:30.345Z,99044.00
2022-11-01T06:46:00.748Z,99050.00
2022-11-01T06:48:28.372Z,99054.00
2022-11-01T06:50:55.832Z,99059.00
2022-11-01T06:53:24.551Z,99062.60
2022-11-01T06:55:52.292Z,99068.40
2022-11-01T06:58:19.136Z,99072.20
2022-11-01T07:00:45.717Z,99078.00
2022-11-01T07:03:14.501Z,99078.80
2022-11-01T07:05:41.922Z,99078.80
2022-11-01T07:08:12.892Z,99081.80
2022-11-01T07:10:42.588Z,99086.40
2022-11-01T07:13:13.760Z,99093.80
2022-11-01T07:15:41.090Z,99091.20
2022-11-01T07:18:08.762Z,99089.40
2022-11-01T07:20:41.915Z,99092.80
2022-11-01T07:23:17.184Z,99091.60
2022-11-01T07:25:44.893Z,99091.60
2022-11-01T07:28:11.324Z,99088.80
2022-11-01T07:30:37.817Z,99084.00
2022-11-01T07:33:05.295Z,99077.80
2022-11-01T07:35:32.475Z,99068.40
2022-11-01T07:38:02.821Z,99059.00
2022-11-01T07:40:32.247Z,99063.00
2022-11-01T07:43:00.493Z,99062.20
2022-11-01T07:45:29.553Z,99061.20
2022-11-01T07:48:18.779Z,99057.80
2022-11-01T07:50:46.190Z,99052.80
2022-11-01T07:53:19.229Z,99050.80
2022-11-01T07:55:46.437Z,99046.60
2022-11-01T07:58:16.252Z,99050.40
2022-11-01T08:00:44.752Z,99051.80
2022-11-01T08:03:15.241Z,99054.40
2022-11-01T08:05:43.078Z,99053.20
2022-11-01T08:08:10.433Z,99052.20
2022-11-01T08:10:39.370Z,99056.40
2022-11-01T08:13:16.630Z,99059.40
2022-11-01T08:15:44.526Z,99054.20
2022-11-01T08:18:11.057Z,99048.80
2022-11-01T08:20:37.823Z,99048.20
2022-11-01T08:23:05.585Z,99040.20
2022-11-01T08:25:35.037Z,99036.20
2022-11-01T08:28:10.213Z,99029.00
2022-11-01T08:30:39.003Z,99018.20
2022-11-01T08:33:06.135Z,99013.00
2022-11-01T08:35:35.210Z,99007.00
2022-11-01T08:38:03.439Z,98996.80
2022-11-01T08:40:32.455Z,98995.60
2022-11-01T08:42:59.762Z,98988.40
2022-11-01T08:45:27.368Z,98992.20
2022-11-01T08:48:03.627Z,98988.80
2022-11-01T08:50:31.564Z,98995.80
2022-11-01T08:52:57.959Z,99003.00
2022-11-01T08:55:24.537Z,99011.00
2022-11-01T08:57:51.021Z,99008.40
2022-11-01T09:00:18.457Z,99009.60
2022-11-01T09:02:45.383Z,99018.00
2022-11-01T09:05:11.872Z,99021.60
2022-11-01T09:07:39.758Z,99021.80
2022-11-01T09:10:07.684Z,99020.40
2022-11-01T09:12:35.394Z,99025.60
2022-11-01T09:15:02.792Z,99029.20
2022-11-01T09:17:29.367Z,99032.40
2022-11-01T09:19:56.006Z,99029.40
2022-11-01T09:22:23.706Z,99027.20
2022-11-01T09:24:51.453Z,99032.60
2022-11-01T09:27:18.382Z,99028.00
2022-11-01T09:29:46.728Z,99028.20
2022-11-01T09:32:15.897Z,99024.80
2022-11-01T09:34:42.268Z,99019.00
2022-11-01T09:37:08.724Z,99015.60
2022-11-01T09:39:35.153Z,99020.60
2022-11-01T09:42:35.761Z,99015.60
2022-11-01T09:45:10.350Z,99013.40
2022-11-01T09:47:37.881Z,99009.40
2022-11-01T09:50:34.265Z,99010.20
2022-11-01T09:53:04.289Z,99009.60
2022-11-01T09:55:52.300Z,99013.40
2022-11-01T09:59:03.944Z,99012.00
2022-11-01T10:02:14.734Z,99000.60
2022-11-01T10:05:30.296Z,98998.40
2022-11-01T10:08:37.704Z,99000.60
2022-11-01T10:11:35.243Z,99013.80
2022-11-01T10:14:35.543Z,99013.80
2022-11-01T10:17:21.788Z,99012.60
2022-11-01T10:19:50.702Z,99004.80
2022-11-01T10:22:34.321Z,98999.60
2022-11-01T10:25:31.417Z,99005.20
2022-11-01T10:28:26.408Z,98996.40
2022-11-01T10:31:03.784Z,98993.80
2022-11-01T10:34:02.620Z,98990.60
2022-11-01T10:36:34.741Z,98984.40
2022-11-01T10:39:57.041Z,98981.00
2022-11-01T10:42:28.918Z,98980.60
2022-11-01T10:45:03.516Z,98975.40
2022-11-01T10:47:30.107Z,98976.80
2022-11-01T10:50:07.581Z,98973.20
2022-11-01T10:52:55.603Z,98980.40
2022-11-01T10:55:47.067Z,98977.80
2022-11-01T10:58:33.342Z,98966.80
2022-11-01T11:01:05.068Z,98964.80
2022-11-01T11:03:31.714Z,98967.00
2022-11-01T11:06:08.317Z,98963.20
2022-11-01T11:08:38.490Z,98964.20
2022-11-01T11:11:12.356Z,98962.60
2022-11-01T11:13:43.750Z,98960.20
2022-11-01T11:16:57.175Z,98956.20
2022-11-01T11:19:34.165Z,98956.00
2022-11-01T11:22:05.446Z,98958.80
2022-11-01T11:24:38.725Z,98961.20
2022-11-01T11:27:20.840Z,98961.20
2022-11-01T11:30:05.480Z,98961.80
2022-11-01T11:32:34.421Z,98966.60
2022-11-01T11:35:16.887Z,98969.60
2022-11-01T11:38:04.352Z,98975.80
2022-11-01T11:40:43.049Z,98973.40
2022-11-01T11:43:34.327Z,98972.20
2022-11-01T11:46:23.729Z,98968.20
2022-11-01T11:49:06.958Z,98961.80
2022-11-01T11:51:38.381Z,98963.40
2022-11-01T11:54:29.144Z,98962.60
2022-11-01T11:57:17.389Z,98964.40
2022-11-01T11:59:49.400Z,98964.60
2022-11-01T12:02:29.637Z,98958.60
2022-11-01T12:05:26.522Z,98954.20
2022-11-01T12:07:56.823Z,98954.00
2022-11-01T12:10:45.947Z,98954.60
2022-11-01T12:13:41.322Z,98952.80
2022-11-01T12:16:25.035Z,98945.40
2022-11-01T12:18:57.202Z,98945.80
2022-11-01T12:21:29.722Z,98952.60
2022-11-01T12:24:19.937Z,98956.60
2022-11-01T12:26:49.265Z,98961.20
2022-11-01T12:29:36.912Z,98958.40
2022-11-01T12:32:15.574Z,98956.40
2022-11-01T12:34:45.759Z,98956.20
2022-11-01T12:37:35.017Z,98954.20
2022-11-01T12:40:36.721Z,98954.60
2022-11-01T12:43:16.174Z,98959.20
2022-11-01T12:46:04.652Z,98970.60
2022-11-01T12:48:47.673Z,98968.20
2022-11-01T12:51:28.958Z,98973.00
2022-11-01T12:54:07.526Z,98981.60
2022-11-01T12:56:34.116Z,98984.40
2022-11-01T12:59:00.950Z,98983.60
2022-11-01T13:01:52.843Z,98990.60
2022-11-01T13:04:34.488Z,98991.60
2022-11-01T13:07:47.999Z,98999.00
2022-11-01T13:10:33.270Z,99004.80
2022-11-01T13:13:17.692Z,99005.20
2022-11-01T13:16:16.809Z,99000.80
2022-11-01T13:18:55.586Z,98995.80
2022-11-01T13:21:37.809Z,99001.20
2022-11-01T13:24:24.651Z,98999.20
2022-11-01T13:27:01.682Z,98993.20
2022-11-01T13:29:52.735Z,98994.00
2022-11-01T13:32:33.970Z,98994.40
2022-11-01T13:35:49.039Z,98991.80
2022-11-01T13:38:38.623Z,98998.40
2022-11-01T13:41:09.411Z,99005.00
2022-11-01T13:43:43.747Z,99003.40
2022-11-01T13:46:31.712Z,99001.60
2022-11-01T13:49:10.384Z,98995.60
2022-11-01T13:52:07.276Z,98993.80
2022-11-01T13:54:52.041Z,98991.40
2022-11-01T13:57:22.561Z,98992.00
2022-11-01T13:59:59.038Z,98990.80
2022-11-01T14:02:25.477Z,98999.40
2022-11-01T14:05:02.662Z,98995.80
2022-11-01T14:07:44.103Z,98987.60
2022-11-01T14:10:30.572Z,98988.40
2022-11-01T14:12:56.902Z,98992.60
2022-11-01T14:15:26.757Z,98996.00
2022-11-01T14:17:56.102Z,99005.60
2022-11-01T14:20:25.247Z,99001.00
2022-11-01T14:22:56.478Z,98995.20
2022-11-01T14:25:22.801Z,98993.40
2022-11-01T14:28:11.801Z,98991.00
2022-11-01T14:30:42.188Z,98990.60
2022-11-01T14:33:23.666Z,98990.80
2022-11-01T14:35:57.841Z,99001.00
2022-11-01T14:38:34.018Z,98994.40
2022-11-01T14:41:01.628Z,98995.20
2022-11-01T14:43:51.047Z,98994.80
2022-11-01T14:46:24.192Z,99001.40
2022-11-01T14:49:05.203Z,98997.60
2022-11-01T14:51:38.797Z,98991.40
2022-11-01T14:54:18.636Z,98992.00
2022-11-01T14:56:52.139Z,98994.00
2022-11-01T14:59:24.689Z,99002.60
2022-11-01T15:02:02.070Z,99001.00
2022-11-01T15:04:39.552Z,98994.00
2022-11-01T15:07:31.332Z,99004.20
2022-11-01T15:10:00.581Z,99006.20
2022-11-01T15:12:34.670Z,99001.80
2022-11-01T15:15:02.320Z,99005.20
2022-11-01T15:17:34.989Z,99011.40
2022-11-01T15:20:18.074Z,99014.60
2022-11-01T15:22:44.569Z,99012.00
2022-11-01T15:25:26.466Z,99007.40
2022-11-01T15:27:55.708Z,99006.40
2022-11-01T15:30:27.592Z,99022.80
2022-11-01T15:33:20.958Z,99037.80
2022-11-01T15:36:01.276Z,99031.60
2022-11-01T15:38:30.510Z,99032.20
2022-11-01T15:40:57.036Z,99027.60
2022-11-01T15:43:27.266Z,99030.40
2022-11-01T15:45:59.359Z,99031.20
2022-11-01T15:48:32.940Z,99027.60
2022-11-01T15:51:04.314Z,99029.40
2022-11-01T15:53:34.379Z,99040.20
2022-11-01T15:56:25.766Z,99045.60
2022-11-01T16:01:31.544Z,99034.60
2022-11-01T16:04:11.105Z,99030.60
2022-11-01T16:06:54.821Z,99031.80
2022-11-01T16:09:36.157Z,99035.80
2022-11-01T16:12:07.396Z,99037.00
2022-11-01T16:14:37.940Z,99040.80
2022-11-01T16:17:32.894Z,99041.80
2022-11-01T16:19:59.901Z,99044.00
2022-11-01T16:22:42.023Z,99044.60
2022-11-01T16:25:11.230Z,99051.00
2022-11-01T16:28:00.280Z,99051.40
2022-11-01T16:30:45.051Z,99053.80
2022-11-01T16:33:33.724Z,99052.40
2022-11-01T16:36:35.655Z,99061.40
2022-11-01T16:39:02.660Z,99055.60
2022-11-01T16:41:39.828Z,99056.40
2022-11-01T16:44:16.038Z,99063.40
2022-11-01T16:46:42.841Z,99059.60
2022-11-01T16:49:15.257Z,99063.20
2022-11-01T16:51:42.432Z,99061.20
2022-11-01T16:54:10.347Z,99059.00
2022-11-01T16:56:49.863Z,99059.40
2022-11-01T16:59:35.498Z,99062.00
2022-11-01T17:02:15.658Z,99063.00
2022-11-01T17:04:43.548Z,99061.60
2022-11-01T17:07:12.055Z,99065.00
2022-11-01T17:09:39.603Z,99065.00
2022-11-01T17:12:07.705Z,99070.40
2022-11-01T17:14:37.440Z,99073.80
2022-11-01T17:17:10.446Z,99072.40
2022-11-01T17:19:41.285Z,99075.00
2022-11-01T17:22:17.696Z,99079.80
2022-11-01T17:24:45.345Z,99082.40
2022-11-01T17:27:12.689Z,99081.20
2022-11-01T17:29:39.077Z,99082.00
2022-11-01T17:32:09.557Z,99082.60
2022-11-01T17:34:37.732Z,99082.00
2022-11-01T17:37:05.188Z,99086.20
2022-11-01T17:39:31.925Z,99085.80
2022-11-01T17:41:59.219Z,99080.00
2022-11-01T17:44:25.716Z,99080.20
2022-11-01T17:46:52.196Z,99081.60
2022-11-01T17:49:21.582Z,99076.40
2022-11-01T17:51:53.340Z,99076.60
2022-11-01T17:54:21.823Z,99074.40
2022-11-01T17:56:48.338Z,99079.20
2022-11-01T17:59:14.767Z,99075.80
2022-11-01T18:01:42.603Z,99076.00
2022-11-01T18:04:09.169Z,99072.20
2022-11-01T18:06:35.791Z,99070.20
2022-11-01T18:09:05.477Z,99064.60
2022-11-01T18:11:41.768Z,99068.40
2022-11-01T18:14:48.771Z,99076.00
2022-11-01T18:18:11.452Z,99078.20
2022-11-01T18:21:08.567Z,99077.00
2022-11-01T18:23:37.276Z,99080.60
2022-11-01T18:26:03.671Z,99081.00
2022-11-01T18:28:32.488Z,99084.60
2022-11-01T18:31:02.786Z,99082.60
2022-11-01T18:34:07.282Z,99079.80
2022-11-01T18:36:39.540Z,99075.20
2022-11-01T18:39:36.320Z,99080.40
2022-11-01T18:42:08.296Z,99074.00
2022-11-01T18:44:34.694Z,99076.00
2022-11-01T18:47:22.048Z,99074.20
2022-11-01T18:49:50.060Z,99076.60
2022-11-01T18:52:19.183Z,99081.80
2022-11-01T18:54:56.595Z,99078.40
2022-11-01T18:57:24.598Z,99081.00
2022-11-01T18:59:53.413Z,99081.40
2022-11-01T19:02:27.975Z,99087.40
2022-11-01T19:05:14.138Z,99085.00
2022-11-01T19:08:08.916Z,99083.80
2022-11-01T19:10:28.500Z,99085.40
2022-11-01T19:12:55.279Z,99086.40
2022-11-01T19:15:30.529Z,99085.60
2022-11-01T19:18:04.507Z,99082.40
2022-11-01T19:20:38.962Z,99076.80
2022-11-01T19:23:15.136Z,99070.80
2022-11-01T19:25:45.915Z,99068.60
2022-11-01T19:28:26.583Z,99074.00
2022-11-01T19:30:57.357Z,99079.60
2022-11-01T19:33:33.880Z,99081.80
2022-11-01T19:36:11.276Z,99083.00
2022-11-01T19:38:43.286Z,99085.80
2022-11-01T19:41:15.501Z,99083.60
2022-11-01T19:43:42.289Z,99087.40
2022-11-01T19:46:15.394Z,99085.00
2022-11-01T19:48:42.279Z,99086.20
2022-11-01T19:51:24.855Z,99079.40
2022-11-01T19:53:53.396Z,99081.20
2022-11-01T19:56:29.700Z,99085.80
2022-11-01T19:59:03.651Z,99091.60
2022-11-01T20:01:46.310Z,99092.80
2022-11-01T20:04:28.950Z,99089.20
2022-11-01T20:07:16.769Z,99091.20
2022-11-01T20:09:43.347Z,99096.20
2022-11-01T20:12:18.600Z,99096.40
2022-11-01T20:14:46.529Z,99101.20
2022-11-01T20:17:12.943Z,99103.40
2022-11-01T20:19:39.799Z,99100.60
2022-11-01T20:22:06.860Z,99108.60
2022-11-01T20:24:33.301Z,99104.00
2022-11-01T20:27:00.689Z,99104.80
2022-11-01T20:29:27.254Z,99103.00
2022-11-01T20:31:53.665Z,99105.40
2022-11-01T20:34:20.797Z,99106.40
2022-11-01T20:37:08.165Z,99110.20
2022-11-01T20:39:33.895Z,99109.20
2022-11-01T20:42:00.381Z,99118.00
2022-11-01T20:44:26.753Z,99114.40
2022-11-01T20:46:53.235Z,99117.60
2022-11-01T20:49:19.756Z,99115.80
2022-11-01T20:51:46.694Z,99116.20
2022-11-01T20:54:17.682Z,99118.60
2022-11-01T20:56:44.637Z,99125.40
2022-11-01T20:59:11.110Z,99123.00
2022-11-01T21:01:38.161Z,99127.20
2022-11-01T21:04:12.248Z,99126.00
2022-11-01T21:06:39.021Z,99120.80
2022-11-01T21:09:36.492Z,99124.40
2022-11-01T21:12:02.997Z,99120.20
2022-11-01T21:14:38.560Z,99117.80
2022-11-01T21:17:17.676Z,99121.40
2022-11-01T21:19:53.732Z,99121.20
2022-11-01T21:22:21.436Z,99122.80
2022-11-01T21:24:49.863Z,99120.80
2022-11-01T21:27:27.387Z,99122.40
2022-11-01T21:30:16.229Z,99123.00
2022-11-01T21:32:45.532Z,99126.60
2022-11-01T21:35:20.954Z,99128.60
2022-11-01T21:37:54.625Z,99130.20
2022-11-01T21:40:29.532Z,99129.20
2022-11-01T21:42:57.766Z,99128.40
2022-11-01T21:45:33.201Z,99120.60
2022-11-01T21:48:26.785Z,99121.80
2022-11-01T21:50:53.221Z,99127.00
2022-11-01T21:53:19.682Z,99122.60
2022-11-01T21:55:46.142Z,99122.40
2022-11-01T21:58:12.577Z,99120.40
2022-11-01T22:00:39.001Z,99130.60
2022-11-01T22:03:05.665Z,99125.60
2022-11-01T22:05:32.316Z,99132.00
2022-11-01T22:07:58.681Z,99131.60
2022-11-01T22:10:25.061Z,99131.40
2022-11-01T22:12:51.467Z,99134.80
2022-11-01T22:15:17.867Z,99139.40
2022-11-01T22:17:44.270Z,99142.20
2022-11-01T22:20:11.109Z,99140.00
2022-11-01T22:22:37.554Z,99139.40
2022-11-01T22:25:04.396Z,99142.00
2022-11-01T22:27:30.851Z,99143.60
2022-11-01T22:29:57.753Z,99143.80
2022-11-01T22:32:24.318Z,99145.20
2022-11-01T22:34:51.738Z,99147.80
2022-11-01T22:37:18.140Z,99144.00
2022-11-01T22:39:47.009Z,99137.80
2022-11-01T22:42:17.320Z,99137.80
2022-11-01T22:44:47.106Z,99136.60
2022-11-01T22:47:27.545Z,99136.80
2022-11-01T22:49:58.563Z,99142.60
2022-11-01T22:52:36.892Z,99144.80
2022-11-01T22:55:12.649Z,99143.20
2022-11-01T22:57:54.710Z,99140.20
2022-11-01T23:00:39.096Z,99148.40
2022-11-01T23:03:34.334Z,99145.20
2022-11-01T23:06:21.816Z,99151.20
2022-11-01T23:08:48.377Z,99148.40
2022-11-01T23:11:38.474Z,99136.80
2022-11-01T23:14:36.457Z,99134.60
2022-11-01T23:17:30.942Z,99138.00
2022-11-01T23:20:01.226Z,99149.40
2022-11-01T23:22:35.309Z,99150.80
2022-11-01T23:25:03.820Z,99150.20
2022-11-01T23:27:30.390Z,99151.40
2022-11-01T23:30:00.831Z,99150.40
2022-11-01T23:32:29.631Z,99145.20
2022-11-01T23:35:15.314Z,99144.40
2022-11-01T23:37:43.680Z,99139.60
2022-11-01T23:40:22.028Z,99137.20
2022-11-01T23:42:49.131Z,99138.60
2022-11-01T23:45:30.973Z,99142.60
2022-11-01T23:47:59.421Z,99143.40
2022-11-01T23:50:34.242Z,99143.00
2022-11-01T23:53:13.680Z,99143.40
2022-11-01T23:55:46.929Z,99147.60
2022-11-01T23:58:20.490Z,99146.60
